Kezdőlap
METAR-TAF:

METAR-TAF

Repülőterek :

Lappeenranta, Finnország

földrajzi szélesség: 61-02-45N, földrajzi hosszúság: 028-08-55E, magasság: 106 m

Jelenlegi meteorológiai megfigyelések

A jelentés 36 perccel ezelõtt készült, 23:20 UTC
Különbözõ irányokból fújó szél 1 kt
Hőmérséklet -2°C
Páratartalom 100%
Légköri nyomás 1005 hPa
Látótávolság 10 km, vagy több
felhőtlen 1500 m magasságban, és nincs gomolyfelhõ

METAR: EFLP 242320Z AUTO VRB01KT CAVOK M02/M02 Q1005

Idő: 02:56 (23:56 UTC)


TAF: hiányzik

Meteorológiai megfigyelések és előrejelzések több, mint 4000 repülőtéren (METAR és TAF jelentéseket).

A térképen piros és sárga pontok jelzik az elérhető meteorológiai állomásokat.

Mozgassa az egeret a pont fölött, hogy megjelenjen az állomás neve.

Azután kattintson az időjárási megfigyelések és előrejelzések megtekintéséhez.

A térkép megváltoztatása: kattintson a fekete keresztel jelölt zöld gombra ráközelítéshez, a vonallal jelölt zöld gombra távolításhoz, vagy a zöld nyilakra a szomszédos térképek eléréséhez.


METAR-TAF: